Time;durP1;ratioP1;P1;durP2;ratioP2;P2;SDS_P1;SDS_P2;PMS_P1;PMS_P2;Temp;Humidity;BMP_temperature;BMP_pressure;BME280_temperature;BME280_humidity;BME280_pressure;Samples;Min_cycle;Max_cycle;Signal;HPM_P1;HPM_P2
2021/05/14 00:00:36;;;;;;;10.68;6.65;;;;;;;11.83;79.72;98609.88;5115915;28;22767;-67
2021/05/14 00:03:02;;;;;;;9.02;5.78;;;;;;;11.79;79.84;98620.16;5115690;28;34801;-67
2021/05/14 00:05:27;;;;;;;8.52;6.35;;;;;;;11.76;79.62;98611.78;5115978;27;20021;-67
2021/05/14 00:07:53;;;;;;;9.65;6.35;;;;;;;11.74;80.07;98612.00;5105020;28;20024;-67
2021/05/14 00:10:19;;;;;;;9.15;6.00;;;;;;;11.74;80.00;98606.66;5103521;28;31845;-67
2021/05/14 00:12:45;;;;;;;8.95;6.70;;;;;;;11.72;79.99;98611.38;5109109;28;20127;-67
2021/05/14 00:15:11;;;;;;;9.10;5.88;;;;;;;11.75;80.30;98605.59;5113070;27;20029;-68
2021/05/14 00:17:36;;;;;;;7.55;5.40;;;;;;;11.75;80.15;98612.81;5086347;28;20036;-68
2021/05/14 00:20:05;;;;;;;8.90;5.78;;;;;;;11.73;80.28;98615.69;5106431;28;20386;-68
2021/05/14 00:22:31;;;;;;;7.22;5.30;;;;;;;11.72;80.00;98619.38;5099436;28;20025;-68
2021/05/14 00:24:56;;;;;;;9.80;5.75;;;;;;;11.73;80.81;98621.03;5111541;28;20417;-68
2021/05/14 00:27:21;;;;;;;8.20;4.88;;;;;;;11.75;80.53;98612.81;5095580;28;20025;-68
2021/05/14 00:29:47;;;;;;;7.53;5.07;;;;;;;11.75;80.43;98621.63;5095602;28;20036;-68
2021/05/14 00:32:12;;;;;;;8.57;5.35;;;;;;;11.74;80.20;98621.84;5094567;28;32763;-68
2021/05/14 00:34:38;;;;;;;7.93;5.40;;;;;;;11.73;80.42;98621.03;5093765;28;29518;-68
2021/05/14 00:37:03;;;;;;;9.18;5.93;;;;;;;11.72;80.43;98624.72;5094744;28;32587;-68
2021/05/14 00:39:28;;;;;;;9.05;5.25;;;;;;;11.73;80.73;98620.19;5093831;28;27114;-68
2021/05/14 00:41:54;;;;;;;8.43;5.53;;;;;;;11.75;80.42;98637.63;5094509;28;25844;-68
2021/05/14 00:44:36;;;;;;;7.97;5.45;;;;;;;11.75;80.53;98613.63;5094252;28;29280;-67
2021/05/14 00:47:04;;;;;;;8.45;5.75;;;;;;;11.74;80.02;98620.00;5110686;28;20039;-67
2021/05/14 00:49:29;;;;;;;9.18;5.47;;;;;;;11.72;80.30;98619.38;5095329;28;20029;-67
2021/05/14 00:51:55;;;;;;;8.85;5.18;;;;;;;11.71;80.25;98617.75;5094590;28;35130;-67
2021/05/14 00:54:21;;;;;;;7.18;4.60;;;;;;;11.68;80.36;98615.53;5093780;28;20108;-68
2021/05/14 00:56:46;;;;;;;7.65;5.50;;;;;;;11.65;80.10;98614.09;5093954;28;20025;-68
2021/05/14 00:59:12;;;;;;;9.20;5.65;;;;;;;11.64;80.14;98617.78;5110719;28;20040;-68
2021/05/14 01:01:37;;;;;;;9.13;5.13;;;;;;;11.65;80.58;98623.97;5095024;28;20029;-68
2021/05/14 01:04:03;;;;;;;8.07;5.55;;;;;;;11.64;80.99;98619.66;5094187;28;32570;-68
2021/05/14 01:06:28;;;;;;;9.15;5.60;;;;;;;11.62;80.36;98619.06;5095112;28;20116;-68
2021/05/14 01:08:55;;;;;;;9.57;5.75;;;;;;;11.62;80.50;98619.88;5110736;28;20384;-67
2021/05/14 01:11:20;;;;;;;10.15;5.53;;;;;;;11.64;80.69;98622.31;5076683;28;20033;-68
2021/05/14 01:13:45;;;;;;;8.20;6.13;;;;;;;11.65;80.56;98622.09;5094717;28;20381;-68
2021/05/14 01:16:11;;;;;;;9.98;6.38;;;;;;;11.65;80.69;98619.44;5094367;28;29221;-68
2021/05/14 01:18:36;;;;;;;12.75;7.05;;;;;;;11.68;80.75;98629.66;5094455;28;27181;-68
2021/05/14 01:21:02;;;;;;;8.00;5.72;;;;;;;11.69;81.12;98619.84;5094997;28;20025;-68
2021/05/14 01:23:27;;;;;;;9.20;6.93;;;;;;;11.70;81.27;98618.81;5094746;28;20036;-67
2021/05/14 01:25:53;;;;;;;9.98;6.38;;;;;;;11.70;80.83;98618.81;5093962;28;36144;-67
2021/05/14 01:28:18;;;;;;;13.27;8.77;;;;;;;11.69;80.55;98625.16;5094132;28;29805;-68
2021/05/14 01:30:44;;;;;;;10.75;6.57;;;;;;;11.68;80.37;98615.53;5096748;28;20492;-68
2021/05/14 01:33:09;;;;;;;10.05;6.13;;;;;;;11.68;81.26;98623.53;5096860;28;20032;-67
2021/05/14 01:35:35;;;;;;;10.73;5.70;;;;;;;11.68;80.78;98619.00;5098081;28;20028;-67
2021/05/14 01:38:00;;;;;;;9.82;5.30;;;;;;;11.67;80.98;98621.88;5097428;28;38232;-67
2021/05/14 01:40:26;;;;;;;8.13;4.53;;;;;;;11.65;80.75;98618.63;5103632;28;20036;-68
2021/05/14 01:42:51;;;;;;;10.55;5.28;;;;;;;11.62;81.04;98619.06;5116906;28;31498;-68
2021/05/14 01:45:16;;;;;;;9.70;4.90;;;;;;;11.60;80.94;98616.59;5118572;28;20024;-68
2021/05/14 01:47:42;;;;;;;8.05;4.93;;;;;;;11.61;81.56;98617.41;5117834;27;34581;-68
2021/05/14 01:50:08;;;;;;;7.28;5.05;;;;;;;11.62;80.90;98616.41;5118547;27;20032;-68
2021/05/14 01:52:34;;;;;;;8.18;4.97;;;;;;;11.62;81.02;98609.19;5118417;27;20032;-68
2021/05/14 01:55:02;;;;;;;9.15;5.03;;;;;;;11.63;81.24;98612.69;5118295;27;20030;-68
2021/05/14 01:57:28;;;;;;;8.52;5.15;;;;;;;11.65;81.65;98613.28;5117232;28;20039;-67
2021/05/14 01:59:53;;;;;;;7.75;4.65;;;;;;;11.66;81.38;98620.28;5118449;27;20027;-68
2021/05/14 02:02:21;;;;;;;7.03;4.75;;;;;;;11.67;81.44;98619.22;5117756;28;20388;-69
2021/05/14 02:04:46;;;;;;;7.28;4.22;;;;;;;11.66;81.22;98614.94;5118101;27;20860;-68
2021/05/14 02:07:12;;;;;;;13.32;4.90;;;;;;;11.65;81.22;98615.97;5117717;27;26658;-68
2021/05/14 02:09:37;;;;;;;10.48;4.45;;;;;;;11.64;81.52;98620.47;5118365;27;20032;-68
2021/05/14 02:12:03;;;;;;;6.70;4.22;;;;;;;11.63;81.17;98610.84;5113667;28;20032;-69
2021/05/14 02:14:28;;;;;;;10.98;5.35;;;;;;;11.65;81.57;98618.63;5106040;27;20054;-69
2021/05/14 02:16:54;;;;;;;11.27;5.15;;;;;;;11.65;81.32;98621.28;5117133;28;38768;-69
2021/05/14 02:19:19;;;;;;;8.20;4.70;;;;;;;11.66;80.96;98617.59;5117493;28;31046;-68
2021/05/14 02:21:44;;;;;;;8.48;4.55;;;;;;;11.67;81.50;98612.06;5117416;28;33441;-68
2021/05/14 02:24:10;;;;;;;7.40;4.68;;;;;;;11.67;81.22;98614.72;5117928;27;20039;-69
2021/05/14 02:26:35;;;;;;;8.23;4.50;;;;;;;11.68;81.01;98618.19;5116693;28;20120;-68
2021/05/14 02:29:02;;;;;;;12.75;4.53;;;;;;;11.67;81.15;98611.22;5117151;28;27038;-68
2021/05/14 02:31:27;;;;;;;7.82;4.20;;;;;;;11.66;81.44;98615.75;5117897;27;20032;-68
2021/05/14 02:33:53;;;;;;;8.05;4.45;;;;;;;11.67;81.19;98621.88;5117080;28;29665;-68
2021/05/14 02:36:18;;;;;;;9.63;4.45;;;;;;;11.69;81.10;98627.84;5117621;28;20435;-68
2021/05/14 02:38:43;;;;;;;7.40;3.53;;;;;;;11.71;81.24;98623.09;5116810;28;30118;-67
2021/05/14 02:41:10;;;;;;;7.18;4.18;;;;;;;11.70;81.22;98632.16;5116882;27;34767;-66
2021/05/14 02:43:36;;;;;;;9.93;4.10;;;;;;;11.71;81.47;98628.41;5116794;27;20044;-67
2021/05/14 02:46:01;;;;;;;7.75;5.07;;;;;;;11.72;81.21;98629.25;5117565;27;20481;-66
2021/05/14 02:48:27;;;;;;;7.43;3.88;;;;;;;11.69;80.64;98630.50;5116797;28;31810;-67
2021/05/14 02:50:52;;;;;;;7.65;3.92;;;;;;;11.68;81.47;98634.19;5116816;28;36753;-67
2021/05/14 02:53:17;;;;;;;9.18;4.57;;;;;;;11.67;80.74;98632.56;5133557;27;20377;-66
2021/05/14 02:55:43;;;;;;;12.07;5.13;;;;;;;11.68;81.09;98635.00;5116583;28;38607;-67
2021/05/14 02:58:09;;;;;;;7.90;5.07;;;;;;;11.69;81.15;98631.31;5150666;27;20031;-66
2021/05/14 03:00:35;;;;;;;10.48;6.07;;;;;;;11.69;81.45;98635.84;5116850;27;20086;-67
2021/05/14 03:03:00;;;;;;;11.82;5.10;;;;;;;11.70;81.39;98634.81;5113960;27;32689;-68
2021/05/14 03:05:25;;;;;;;8.18;4.60;;;;;;;11.73;81.60;98628.19;5115433;28;38841;-67
2021/05/14 03:07:51;;;;;;;7.35;5.20;;;;;;;11.72;81.25;98640.72;5117242;28;20054;-68
2021/05/14 03:10:16;;;;;;;9.30;5.38;;;;;;;11.72;81.00;98634.59;5114526;28;31447;-68
2021/05/14 03:12:42;;;;;;;7.63;4.25;;;;;;;11.69;81.49;98638.50;5116830;28;20098;-68
2021/05/14 03:15:08;;;;;;;5.88;4.38;;;;;;;11.68;81.44;98647.53;5115144;28;20032;-68
2021/05/14 03:17:33;;;;;;;8.45;4.38;;;;;;;11.68;81.64;98644.88;5116461;27;20020;-68
2021/05/14 03:19:58;;;;;;;7.85;5.53;;;;;;;11.65;81.12;98645.31;5117018;27;20021;-68
2021/05/14 03:22:24;;;;;;;8.80;4.45;;;;;;;11.62;81.57;98643.06;5115588;28;20027;-68
2021/05/14 03:24:49;;;;;;;6.70;4.18;;;;;;;11.58;80.78;98649.88;5116115;28;32669;-68
2021/05/14 03:27:15;;;;;;;5.47;4.10;;;;;;;11.55;81.05;98655.59;5116976;28;20032;-69
2021/05/14 03:29:40;;;;;;;6.28;4.80;;;;;;;11.54;81.32;98649.47;5149649;27;34937;-68
2021/05/14 03:32:05;;;;;;;9.55;4.72;;;;;;;11.52;81.42;98652.34;5115493;28;20040;-70
2021/05/14 03:34:31;;;;;;;6.32;4.72;;;;;;;11.52;81.51;98651.50;5115299;28;20040;-70
2021/05/14 03:36:57;;;;;;;7.93;4.75;;;;;;;11.53;81.58;98661.16;5115926;28;26919;-69
2021/05/14 03:39:23;;;;;;;7.68;4.53;;;;;;;11.54;81.85;98657.47;5116988;27;20157;-69
2021/05/14 03:41:51;;;;;;;14.68;4.85;;;;;;;11.57;81.20;98664.22;5116546;27;20030;-69
2021/05/14 03:44:17;;;;;;;7.88;4.38;;;;;;;11.57;81.28;98659.69;5112293;27;20052;-68
2021/05/14 03:46:42;;;;;;;16.75;5.28;;;;;;;11.57;81.41;98658.88;5115130;28;41618;-69
2021/05/14 03:49:07;;;;;;;8.02;4.45;;;;;;;11.58;81.10;98665.88;5132197;27;20058;-69
2021/05/14 03:51:38;;;;;;;10.73;4.55;;;;;;;11.57;81.33;98664.22;5131387;27;36946;-68
2021/05/14 03:54:04;;;;;;;11.10;7.13;;;;;;;11.58;81.63;98665.88;5115569;27;20020;-67
2021/05/14 03:56:30;;;;;;;7.15;4.75;;;;;;;11.56;81.01;98670.59;5115797;27;20037;-68
2021/05/14 03:58:55;;;;;;;7.40;4.65;;;;;;;11.56;81.37;98666.06;5116343;27;20024;-67
2021/05/14 04:01:21;;;;;;;10.07;4.70;;;;;;;11.56;81.08;98670.59;5116327;28;20400;-68
2021/05/14 04:03:48;;;;;;;9.63;5.28;;;;;;;11.57;81.67;98669.56;5107786;27;36149;-67
2021/05/14 04:06:13;;;;;;;10.95;5.47;;;;;;;11.60;81.63;98669.13;5137463;27;20027;-68
2021/05/14 04:08:38;;;;;;;9.30;5.63;;;;;;;11.63;81.42;98666.03;5104012;28;34731;-70
2021/05/14 04:16:32;;;;;;;8.57;5.22;;;;;;;11.62;81.47;98672.41;5112715;28;20040;-70
2021/05/14 04:18:57;;;;;;;9.05;5.53;;;;;;;11.62;81.20;98670.56;5114332;28;20028;-71
2021/05/14 04:21:22;;;;;;;6.95;4.38;;;;;;;11.63;80.86;98679.34;5112006;28;36396;-70
2021/05/14 04:23:48;;;;;;;5.97;4.55;;;;;;;11.61;81.21;98673.44;5112944;28;41244;-71
2021/05/14 04:26:13;;;;;;;7.20;4.53;;;;;;;11.61;80.85;98673.44;5147577;27;20388;-71
2021/05/14 04:28:39;;;;;;;6.80;4.53;;;;;;;11.61;80.94;98674.25;5114171;28;20024;-71
2021/05/14 04:31:05;;;;;;;6.88;4.78;;;;;;;11.61;81.37;98676.91;5113032;28;34977;-71
2021/05/14 04:33:30;;;;;;;7.90;5.03;;;;;;;11.64;81.11;98675.66;5114740;27;20094;-71
2021/05/14 04:35:56;;;;;;;7.38;4.55;;;;;;;11.68;81.34;98675.00;5147847;27;36491;-71
2021/05/14 04:38:21;;;;;;;7.28;4.35;;;;;;;11.73;80.83;98673.53;5115596;28;20030;-71
2021/05/14 04:40:46;;;;;;;16.38;5.30;;;;;;;11.78;81.71;98679.06;5148244;27;30101;-71
2021/05/14 04:43:12;;;;;;;7.75;5.20;;;;;;;11.82;81.56;98683.78;5114945;28;20389;-71
2021/05/14 04:45:37;;;;;;;9.73;5.47;;;;;;;11.83;81.49;98685.38;5148686;27;20032;-71
2021/05/14 04:48:05;;;;;;;6.35;4.93;;;;;;;11.82;81.52;98691.78;5114293;28;20427;-71
2021/05/14 04:50:30;;;;;;;7.25;5.53;;;;;;;11.83;81.31;98682.72;5131151;27;20039;-71
2021/05/14 04:53:05;;;;;;;7.25;5.07;;;;;;;11.83;81.48;98681.91;5115630;27;23431;-70
2021/05/14 04:55:30;;;;;;;7.25;5.28;;;;;;;11.82;80.74;98689.09;5114388;27;20725;-71
2021/05/14 04:57:56;;;;;;;9.50;5.22;;;;;;;11.83;81.13;98687.25;5115685;27;20027;-71
2021/05/14 05:00:22;;;;;;;7.28;5.05;;;;;;;11.81;81.30;98691.97;5146102;27;38360;-70
2021/05/14 05:02:47;;;;;;;7.32;5.93;;;;;;;11.83;80.99;98696.06;5099230;28;20841;-72
2021/05/14 05:05:12;;;;;;;7.32;5.22;;;;;;;11.85;81.17;98691.34;5132882;27;20050;-71
2021/05/14 05:07:38;;;;;;;6.63;4.43;;;;;;;11.88;81.63;98692.75;5109836;28;20039;-74
2021/05/14 05:10:04;;;;;;;8.63;4.43;;;;;;;11.91;81.29;98699.53;5109148;28;36915;-71
2021/05/14 05:12:29;;;;;;;7.18;4.70;;;;;;;11.93;81.10;98705.44;5114264;27;20025;-72
2021/05/14 05:14:54;;;;;;;5.93;4.32;;;;;;;12.00;81.34;98707.06;5105420;27;30166;-73
2021/05/14 05:17:20;;;;;;;6.63;4.22;;;;;;;12.04;80.80;98707.44;5115679;28;37956;-72
2021/05/14 05:19:45;;;;;;;8.38;4.47;;;;;;;12.04;80.79;98706.63;5108770;28;34806;-71
2021/05/14 05:22:11;;;;;;;9.57;4.50;;;;;;;12.05;80.65;98709.09;5082233;28;20039;-74
2021/05/14 05:24:36;;;;;;;5.72;3.85;;;;;;;12.06;80.66;98705.41;5117123;28;20443;-77
2021/05/14 05:27:01;;;;;;;4.90;3.38;;;;;;;12.07;80.34;98707.03;5115368;28;35334;-74
2021/05/14 05:29:27;;;;;;;4.80;4.05;;;;;;;12.06;80.39;98726.75;5096685;28;20029;-72
2021/05/14 05:31:52;;;;;;;7.50;4.57;;;;;;;12.07;80.41;98722.22;5112107;28;20094;-72
2021/05/14 05:34:18;;;;;;;5.50;4.00;;;;;;;12.04;80.96;98715.44;5095976;28;20029;-73
2021/05/14 05:36:43;;;;;;;5.53;3.55;;;;;;;12.05;80.11;98719.75;5096243;28;20428;-73
2021/05/14 05:39:09;;;;;;;5.47;3.17;;;;;;;12.06;80.30;98725.94;5095971;28;20031;-71
2021/05/14 05:41:34;;;;;;;6.47;3.33;;;;;;;12.08;80.39;98729.19;5095446;28;31834;-74
2021/05/14 05:43:59;;;;;;;6.10;3.47;;;;;;;12.09;80.47;98731.66;5103416;28;20048;-71
2021/05/14 05:46:25;;;;;;;5.00;3.53;;;;;;;12.12;80.56;98728.53;5115603;28;33547;-70
2021/05/14 05:48:50;;;;;;;5.82;3.50;;;;;;;12.16;80.14;98721.72;5113182;27;20502;-71
2021/05/14 05:51:16;;;;;;;7.20;3.75;;;;;;;12.17;80.22;98728.72;5118074;27;20030;-70
2021/05/14 05:53:42;;;;;;;4.43;3.03;;;;;;;12.18;80.23;98716.19;5099761;28;20035;-71
2021/05/14 05:56:07;;;;;;;4.03;2.90;;;;;;;12.15;79.90;98736.13;5116951;27;20039;-72
2021/05/14 05:58:33;;;;;;;7.00;3.95;;;;;;;12.15;79.65;98737.97;5116004;28;37325;-71
2021/05/14 06:00:59;;;;;;;5.70;3.25;;;;;;;12.15;79.69;98737.97;5117751;27;20036;-70
2021/05/14 06:03:24;;;;;;;4.30;2.72;;;;;;;12.21;80.32;98736.31;5116656;27;33681;-69
2021/05/14 06:05:50;;;;;;;5.05;3.00;;;;;;;12.27;80.31;98749.59;5115774;28;38843;-71
2021/05/14 06:08:15;;;;;;;6.13;3.00;;;;;;;12.28;80.26;98747.75;5099414;28;20146;-71
2021/05/14 06:10:41;;;;;;;4.03;2.67;;;;;;;12.31;79.67;98761.47;5115868;28;30414;-69
2021/05/14 06:13:07;;;;;;;5.07;2.40;;;;;;;12.33;79.66;98750.59;5116935;27;20497;-69
2021/05/14 06:15:32;;;;;;;4.10;2.60;;;;;;;12.32;79.19;98759.63;5116583;27;22668;-71
2021/05/14 06:17:57;;;;;;;3.35;2.15;;;;;;;12.27;78.89;98757.59;5117762;28;20028;-73
2021/05/14 06:20:25;;;;;;;5.72;2.70;;;;;;;12.28;79.46;98753.91;5117098;28;20381;-69
2021/05/14 06:22:50;;;;;;;4.55;2.33;;;;;;;12.32;79.09;98764.97;5117665;27;20078;-71
2021/05/14 06:25:17;;;;;;;2.95;1.92;;;;;;;12.36;79.26;98763.50;5117247;28;20385;-69
2021/05/14 06:27:43;;;;;;;3.20;2.30;;;;;;;12.40;79.58;98767.38;5116912;27;20031;-72
2021/05/14 06:30:09;;;;;;;8.90;2.65;;;;;;;12.46;79.27;98766.50;5117542;27;20029;-71
2021/05/14 06:32:34;;;;;;;4.05;2.92;;;;;;;12.52;79.57;98770.16;5133023;27;20082;-70
2021/05/14 06:35:00;;;;;;;4.30;2.70;;;;;;;12.62;79.70;98773.16;5116969;28;34734;-69
2021/05/14 06:37:25;;;;;;;5.20;2.42;;;;;;;12.71;79.26;98768.34;5117367;28;20024;-70
2021/05/14 06:39:51;;;;;;;4.30;2.58;;;;;;;12.78;79.16;98763.78;5116864;28;29776;-69
2021/05/14 06:42:17;;;;;;;4.15;2.65;;;;;;;12.80;78.75;98768.91;5133000;27;20057;-72
2021/05/14 06:44:42;;;;;;;5.18;2.90;;;;;;;12.85;78.98;98777.91;5101071;28;20052;-71
2021/05/14 06:47:08;;;;;;;4.22;2.55;;;;;;;12.95;79.15;98779.25;5094826;28;20052;-69
2021/05/14 06:49:33;;;;;;;6.32;3.15;;;;;;;12.99;78.51;98783.94;5096119;28;20024;-71
2021/05/14 06:51:58;;;;;;;4.10;2.83;;;;;;;13.02;78.27;98772.78;5095069;28;20044;-71
2021/05/14 06:54:24;;;;;;;7.85;3.17;;;;;;;13.11;78.50;98788.53;5095678;28;20373;-72
2021/05/14 06:56:50;;;;;;;5.38;3.33;;;;;;;13.15;78.23;98787.88;5094473;28;35093;-70
2021/05/14 06:59:16;;;;;;;4.85;3.30;;;;;;;13.19;78.12;98788.28;5095060;28;20102;-73
2021/05/14 07:01:41;;;;;;;6.60;2.80;;;;;;;13.24;77.36;98791.09;5095712;28;39243;-73
2021/05/14 07:04:07;;;;;;;5.00;2.83;;;;;;;13.29;77.86;98801.13;5095727;28;35796;-72
2021/05/14 07:06:32;;;;;;;2.90;2.10;;;;;;;13.31;77.28;98804.38;5095378;28;20027;-72
2021/05/14 07:08:58;;;;;;;6.70;2.67;;;;;;;13.29;77.33;98811.81;5096649;28;20032;-73
2021/05/14 07:11:23;;;;;;;3.65;2.28;;;;;;;13.34;77.45;98810.13;5096018;28;20086;-75
2021/05/14 07:13:48;;;;;;;5.57;2.13;;;;;;;13.37;76.94;98815.03;5102922;28;20028;-73
2021/05/14 07:16:14;;;;;;;3.92;2.40;;;;;;;13.37;76.45;98809.69;5116968;28;20529;-74
2021/05/14 07:18:39;;;;;;;4.13;2.20;;;;;;;13.41;76.89;98810.09;5115756;28;36040;-73
2021/05/14 07:21:05;;;;;;;5.05;2.10;;;;;;;13.46;77.04;98810.22;5116628;27;20047;-72
2021/05/14 07:23:31;;;;;;;4.30;2.63;;;;;;;13.53;76.14;98804.78;5115962;27;26959;-71
2021/05/14 07:25:57;;;;;;;3.95;2.15;;;;;;;13.51;76.42;98813.03;5116536;28;20059;-70
2021/05/14 07:28:22;;;;;;;4.97;2.35;;;;;;;13.49;75.87;98809.78;5111461;27;20515;-73
2021/05/14 07:30:47;;;;;;;3.50;2.40;;;;;;;13.47;76.00;98819.88;5096296;28;36636;-74
2021/05/14 07:33:13;;;;;;;2.80;1.85;;;;;;;13.46;75.88;98814.75;5096067;28;20024;-67
2021/05/14 07:35:38;;;;;;;5.38;2.00;;;;;;;13.48;75.69;98820.72;5095583;28;20020;-68
2021/05/14 07:38:04;;;;;;;3.70;2.90;;;;;;;13.46;75.47;98823.59;5110851;28;37515;-72
2021/05/14 07:40:29;;;;;;;4.75;3.20;;;;;;;13.50;75.60;98808.72;5099199;28;20032;-70
2021/05/14 07:42:54;;;;;;;3.17;2.47;;;;;;;13.56;75.47;98814.22;5093828;28;24904;-70
2021/05/14 07:45:20;;;;;;;3.85;2.28;;;;;;;13.56;75.29;98815.06;5113692;28;20039;-69
2021/05/14 07:47:45;;;;;;;3.63;2.70;;;;;;;13.65;75.25;98821.72;5113727;28;39654;-71
2021/05/14 07:50:11;;;;;;;3.50;2.42;;;;;;;13.59;74.46;98814.59;5115032;27;41170;-68
2021/05/14 07:52:36;;;;;;;5.63;3.03;;;;;;;13.59;74.43;98819.16;5115931;27;20056;-70
2021/05/14 07:55:02;;;;;;;6.70;2.92;;;;;;;13.57;74.20;98821.22;5115738;28;25141;-70
2021/05/14 07:57:28;;;;;;;3.50;2.42;;;;;;;13.53;74.00;98816.31;5131934;27;20142;-69
2021/05/14 07:59:53;;;;;;;3.85;2.50;;;;;;;13.50;74.28;98832.00;5114851;28;20036;-72
2021/05/14 08:02:19;;;;;;;4.07;2.88;;;;;;;13.48;73.97;98828.72;5116107;28;20066;-74
2021/05/14 08:04:44;;;;;;;5.38;2.65;;;;;;;13.44;73.67;98831.03;5116095;28;20412;-75
2021/05/14 08:07:09;;;;;;;6.07;2.88;;;;;;;13.39;73.96;98835.41;5116017;28;20040;-73
2021/05/14 08:09:35;;;;;;;3.85;2.97;;;;;;;13.35;73.87;98835.88;5108654;28;37335;-75
2021/05/14 08:12:05;;;;;;;4.97;3.28;;;;;;;13.35;73.44;98830.50;5149325;27;20024;-72
2021/05/14 08:14:31;;;;;;;4.53;2.65;;;;;;;13.41;74.30;98831.47;5115174;27;20036;-74
2021/05/14 08:16:56;;;;;;;4.30;3.35;;;;;;;13.49;74.12;98827.66;5131553;27;20028;-73
2021/05/14 08:19:22;;;;;;;6.20;2.90;;;;;;;13.54;73.75;98838.53;5115277;27;20042;-71
2021/05/14 08:21:47;;;;;;;3.13;2.53;;;;;;;13.56;73.55;98836.47;5114984;27;20038;-71
2021/05/14 08:24:13;;;;;;;5.68;2.85;;;;;;;13.57;73.64;98853.31;5130440;27;36863;-73
2021/05/14 08:26:39;;;;;;;3.90;2.88;;;;;;;13.61;73.76;98847.28;5115473;27;20054;-72
2021/05/14 08:29:05;;;;;;;3.55;2.58;;;;;;;13.71;74.04;98846.78;5094801;28;20040;-69
2021/05/14 08:31:33;;;;;;;4.40;2.60;;;;;;;13.75;73.65;98839.13;5094958;28;20086;-76
2021/05/14 08:33:59;;;;;;;5.82;3.00;;;;;;;13.72;72.92;98835.03;5094538;28;20084;-74
2021/05/14 08:36:24;;;;;;;5.75;2.88;;;;;;;13.70;73.00;98847.84;5095179;28;20033;-76
2021/05/14 08:38:50;;;;;;;6.22;2.65;;;;;;;13.64;72.49;98851.38;5094667;28;26269;-72
2021/05/14 08:41:15;;;;;;;3.75;2.20;;;;;;;13.54;72.41;98863.44;5093307;28;30335;-76
2021/05/14 08:43:41;;;;;;;4.20;2.70;;;;;;;13.50;72.53;98859.53;5098203;28;20102;-77
2021/05/14 08:46:06;;;;;;;4.28;2.28;;;;;;;13.53;72.89;98859.13;5114562;27;36412;-74
2021/05/14 08:48:35;;;;;;;3.83;2.42;;;;;;;13.57;72.84;98874.72;5115475;28;20388;-76
2021/05/14 08:51:05;;;;;;;2.83;1.80;;;;;;;13.60;72.44;98864.41;5115351;27;20032;-76
2021/05/14 08:53:30;;;;;;;3.03;2.20;;;;;;;13.63;72.56;98874.66;5130897;27;20849;-78
2021/05/14 08:55:56;;;;;;;4.82;1.95;;;;;;;13.69;72.70;98870.28;5097142;28;20028;-73
2021/05/14 08:58:22;;;;;;;3.42;1.88;;;;;;;13.82;72.96;98864.78;5115224;27;20504;-77
2021/05/14 09:00:47;;;;;;;3.97;1.90;;;;;;;13.95;73.21;98871.00;5114665;28;32524;-76
2021/05/14 09:03:12;;;;;;;2.83;1.85;;;;;;;14.00;72.15;98873.84;5114373;28;39804;-67
2021/05/14 09:05:40;;;;;;;3.67;2.65;;;;;;;13.90;71.43;98878.88;5114002;28;20036;-72
2021/05/14 09:08:05;;;;;;;5.95;2.03;;;;;;;13.91;71.88;98883.22;5115451;27;20031;-69
2021/05/14 09:10:31;;;;;;;5.45;2.28;;;;;;;13.98;72.18;98886.63;5115235;28;20377;-67
2021/05/14 09:12:57;;;;;;;4.50;2.50;;;;;;;13.99;71.96;98893.63;5131307;27;20058;-70
2021/05/14 09:15:34;;;;;;;5.95;2.85;;;;;;;13.97;71.85;98884.97;5093977;28;20067;-78
2021/05/14 09:18:19;;;;;;;4.07;2.60;;;;;;;13.90;70.85;98894.94;5093889;28;20111;-73
2021/05/14 09:20:48;;;;;;;3.60;2.55;;;;;;;13.77;70.86;98898.59;5094069;28;20021;-74
2021/05/14 09:23:16;;;;;;;6.60;2.55;;;;;;;13.73;71.44;98898.22;5095492;28;20048;-76
2021/05/14 09:26:00;;;;;;;3.33;2.55;;;;;;;13.71;71.44;98897.66;5098033;28;20119;-72
2021/05/14 09:28:28;;;;;;;4.68;3.08;;;;;;;13.69;70.87;98894.34;5114827;28;20818;-72
2021/05/14 09:31:16;;;;;;;4.50;3.10;;;;;;;13.67;71.20;98904.47;5114199;27;20082;-72
2021/05/14 09:33:42;;;;;;;5.50;3.22;;;;;;;13.70;71.38;98907.50;5115247;27;20035;-74
2021/05/14 09:36:12;;;;;;;4.72;3.63;;;;;;;13.68;70.88;98922.16;5113877;28;20449;-79
2021/05/14 09:39:08;;;;;;;4.75;3.50;;;;;;;13.64;70.79;98912.94;5113118;28;20026;-78
2021/05/14 09:41:40;;;;;;;4.07;2.72;;;;;;;13.57;70.19;98914.88;5113100;28;20882;-74
2021/05/14 09:44:08;;;;;;;4.25;3.35;;;;;;;13.48;70.67;98930.41;5114660;27;20048;-75
2021/05/14 09:46:39;;;;;;;4.15;3.35;;;;;;;13.49;71.22;98932.84;5113116;28;20835;-77
2021/05/14 09:49:17;;;;;;;4.47;3.60;;;;;;;13.60;71.57;98917.09;5114840;27;20031;-77
2021/05/14 09:51:52;;;;;;;5.63;3.42;;;;;;;13.67;71.57;98928.56;5136470;27;20042;-72
2021/05/14 09:54:18;;;;;;;7.32;3.97;;;;;;;13.80;72.23;98917.69;5118179;28;20027;-75
2021/05/14 09:56:45;;;;;;;7.18;3.08;;;;;;;13.93;71.98;98926.63;5117322;28;20078;-78
2021/05/14 09:59:10;;;;;;;4.05;3.13;;;;;;;14.03;71.63;98927.75;5118831;27;20028;-80
2021/05/14 10:01:36;;;;;;;3.85;3.17;;;;;;;14.12;70.43;98925.59;5118647;28;20032;-77
2021/05/14 10:04:01;;;;;;;5.88;3.45;;;;;;;14.12;71.18;98927.44;5117716;28;34938;-82
2021/05/14 10:06:26;;;;;;;5.85;3.30;;;;;;;14.12;70.09;98925.59;5100170;28;28622;-83
2021/05/14 10:08:52;;;;;;;4.93;3.38;;;;;;;14.15;70.94;98919.78;5117531;28;22340;-84
2021/05/14 10:11:20;;;;;;;4.18;3.33;;;;;;;14.24;70.87;98930.19;5117802;28;20073;-79
2021/05/14 10:13:46;;;;;;;5.90;3.33;;;;;;;14.38;71.09;98927.13;5118452;27;20028;-82
2021/05/14 10:16:12;;;;;;;5.07;3.33;;;;;;;14.45;70.03;98931.56;5124572;27;20029;-76
2021/05/14 10:18:38;;;;;;;5.18;3.75;;;;;;;14.55;70.85;98927.28;5062153;28;29771;-78
2021/05/14 10:21:07;;;;;;;4.57;3.38;;;;;;;14.76;70.91;98938.56;5079962;28;20496;-73
2021/05/14 10:23:33;;;;;;;7.07;3.90;;;;;;;14.97;70.87;98933.78;5079049;28;20079;-72
2021/05/14 10:26:08;;;;;;;6.20;3.55;;;;;;;15.02;68.60;98940.06;5095631;28;20029;-76
2021/05/14 10:28:55;;;;;;;4.57;3.47;;;;;;;14.95;68.37;98943.88;5110485;28;20035;-81
2021/05/14 10:31:22;;;;;;;5.10;3.70;;;;;;;14.76;68.11;98951.97;5133707;27;20028;-76
2021/05/14 10:33:48;;;;;;;5.20;3.72;;;;;;;14.54;67.38;98944.44;5133909;27;20907;-69
2021/05/14 10:36:20;;;;;;;6.55;3.97;;;;;;;14.42;67.66;98950.78;5099133;28;20508;-73
2021/05/14 10:39:00;;;;;;;5.78;4.53;;;;;;;14.44;68.87;98954.06;5118021;28;20562;-72
2021/05/14 10:41:26;;;;;;;4.50;3.38;;;;;;;14.48;68.38;98950.69;5116441;28;20101;-69
2021/05/14 10:44:03;;;;;;;5.60;3.97;;;;;;;14.42;67.67;98954.28;5116411;27;20101;-72
2021/05/14 10:46:29;;;;;;;5.97;3.80;;;;;;;14.33;67.45;98963.66;5117231;27;20115;-71
2021/05/14 10:49:07;;;;;;;5.60;4.25;;;;;;;14.29;68.03;98957.13;5117590;27;20332;-76
2021/05/14 10:51:51;;;;;;;5.22;4.72;;;;;;;14.43;69.10;98958.59;5115708;28;20421;-72
2021/05/14 10:54:38;;;;;;;7.43;4.35;;;;;;;14.65;68.58;98956.28;5114837;28;20824;-73
2021/05/14 10:57:07;;;;;;;5.28;3.90;;;;;;;14.74;68.25;98962.13;5111212;27;20095;-73
2021/05/14 10:59:34;;;;;;;8.63;4.78;;;;;;;14.92;68.66;98966.63;5105227;27;20112;-70
2021/05/14 11:02:00;;;;;;;6.78;4.28;;;;;;;15.00;67.96;98968.16;5096399;28;20025;-69
2021/05/14 11:04:39;;;;;;;6.45;4.63;;;;;;;15.05;67.52;98977.16;5095390;28;20400;-75
